Time;durP1;ratioP1;P1;durP2;ratioP2;P2;SDS_P1;SDS_P2;PMS_P1;PMS_P2;Temp;Humidity;BMP_temperature;BMP_pressure;BME280_temperature;BME280_humidity;BME280_pressure;Samples;Min_cycle;Max_cycle;Signal;HPM_P1;HPM_P2
2023/04/12 00:01:25;;;;;;;5.10;2.40;;;;;;;3.93;86.58;100253.69;4986625;28;20203;-73
2023/04/12 00:03:53;;;;;;;5.20;2.93;;;;;;;3.94;86.58;100246.63;4980434;28;20441;-71
2023/04/12 00:06:24;;;;;;;4.13;2.60;;;;;;;3.94;86.72;100236.91;4981931;28;20647;-71
2023/04/12 00:08:50;;;;;;;5.37;2.20;;;;;;;3.94;86.25;100234.28;4983030;28;20227;-71
2023/04/12 00:11:18;;;;;;;5.80;2.40;;;;;;;3.96;86.68;100227.19;4982938;28;20393;-71
2023/04/12 00:13:44;;;;;;;3.43;2.20;;;;;;;3.98;85.82;100221.84;4980570;28;20208;-71
2023/04/12 00:16:14;;;;;;;5.80;2.20;;;;;;;3.98;86.17;100213.94;4982209;28;20298;-70
2023/04/12 00:18:41;;;;;;;2.93;2.13;;;;;;;3.98;85.81;100212.16;4983232;28;20224;-73
2023/04/12 00:21:09;;;;;;;4.50;2.50;;;;;;;3.97;85.42;100207.81;4986679;28;20599;-71
2023/04/12 00:23:36;;;;;;;9.50;2.83;;;;;;;3.96;85.31;100200.84;4985865;28;20804;-71
2023/04/12 00:26:03;;;;;;;6.53;2.13;;;;;;;3.95;85.01;100203.53;4983713;28;20207;-72
2023/04/12 00:28:31;;;;;;;3.97;2.10;;;;;;;3.93;84.59;100190.44;4983447;28;20223;-71
2023/04/12 00:30:58;;;;;;;4.20;2.00;;;;;;;3.93;84.71;100187.81;4985322;28;20207;-72
2023/04/12 00:33:24;;;;;;;3.20;2.23;;;;;;;3.91;84.85;100178.25;4987342;28;20213;-71
2023/04/12 00:35:50;;;;;;;3.17;1.97;;;;;;;3.89;84.38;100178.34;4986004;28;20211;-72
2023/04/12 00:38:17;;;;;;;3.57;2.10;;;;;;;3.89;84.21;100182.75;4980322;28;20216;-69
2023/04/12 00:40:44;;;;;;;4.73;2.20;;;;;;;3.89;85.11;100175.69;4981505;28;20231;-73
2023/04/12 00:43:17;;;;;;;3.60;1.90;;;;;;;3.88;84.25;100181.88;4984024;28;20227;-71
2023/04/12 00:45:46;;;;;;;3.93;2.10;;;;;;;3.88;84.00;100166.06;4981759;28;20240;-72
2023/04/12 00:48:12;;;;;;;6.67;2.50;;;;;;;3.89;84.14;100175.69;4980683;28;20215;-72
2023/04/12 00:50:43;;;;;;;4.90;1.83;;;;;;;3.88;84.40;100160.81;4983003;28;20689;-72
2023/04/12 00:53:12;;;;;;;4.60;1.77;;;;;;;3.89;84.00;100159.03;4979567;28;20200;-72
2023/04/12 00:55:38;;;;;;;3.53;1.77;;;;;;;3.90;83.74;100153.69;4982273;28;20211;-71
2023/04/12 00:58:05;;;;;;;2.63;1.53;;;;;;;3.91;83.99;100150.16;4984359;28;20219;-72
2023/04/12 01:00:31;;;;;;;6.73;2.10;;;;;;;3.92;83.44;100149.22;4982180;28;20219;-72
2023/04/12 01:03:01;;;;;;;3.53;1.80;;;;;;;3.94;83.01;100149.16;4983046;28;20230;-71
2023/04/12 01:05:28;;;;;;;5.10;1.90;;;;;;;3.95;83.54;100149.06;4981183;28;20533;-69
2023/04/12 01:08:03;;;;;;;3.73;1.73;;;;;;;3.98;83.03;100130.50;4973246;28;20211;-71
2023/04/12 01:10:43;;;;;;;5.27;2.07;;;;;;;3.99;82.36;100124.28;4981833;28;20644;-71
2023/04/12 01:13:20;;;;;;;4.63;1.77;;;;;;;3.98;82.49;100125.22;4982685;28;20612;-71
2023/04/12 01:15:55;;;;;;;3.77;2.40;;;;;;;3.99;82.08;100126.06;4976775;28;20730;-72
2023/04/12 01:18:27;;;;;;;2.90;1.90;;;;;;;3.99;82.37;100126.94;4983133;28;20212;-72
2023/04/12 01:21:03;;;;;;;3.33;1.90;;;;;;;3.98;82.04;100122.59;4983269;28;20379;-72
2023/04/12 01:23:50;;;;;;;2.40;1.70;;;;;;;3.98;82.22;100119.09;4979859;28;20218;-73
2023/04/12 01:26:33;;;;;;;3.70;1.67;;;;;;;3.96;81.67;100107.75;4977778;28;20687;-71
2023/04/12 01:29:04;;;;;;;6.10;2.20;;;;;;;3.94;81.02;100102.56;4986252;28;20294;-72
2023/04/12 01:31:32;;;;;;;3.77;1.67;;;;;;;3.94;81.04;100101.72;4991873;28;20205;-72
2023/04/12 01:34:00;;;;;;;5.03;2.20;;;;;;;3.91;80.92;100097.47;4982403;28;20208;-72
2023/04/12 01:36:28;;;;;;;3.43;1.73;;;;;;;3.89;81.50;100085.28;4981951;28;20232;-72
2023/04/12 01:38:54;;;;;;;2.93;1.90;;;;;;;3.88;81.04;100094.94;4983767;28;20231;-72
2023/04/12 01:41:21;;;;;;;6.23;2.10;;;;;;;3.90;81.44;100084.34;4978568;28;20208;-72
2023/04/12 01:43:48;;;;;;;5.03;1.87;;;;;;;3.91;80.47;100079.00;4980759;28;20239;-71
2023/04/12 01:46:18;;;;;;;2.93;1.80;;;;;;;3.92;80.95;100082.50;4990229;28;20227;-71
2023/04/12 01:48:49;;;;;;;4.57;1.90;;;;;;;3.95;80.64;100077.06;4980228;28;20247;-72
2023/04/12 01:51:22;;;;;;;4.33;1.90;;;;;;;3.96;80.55;100073.50;4989938;28;20675;-71
2023/04/12 01:53:54;;;;;;;4.30;1.53;;;;;;;3.95;80.67;100066.53;4984002;28;20210;-71
2023/04/12 01:56:22;;;;;;;2.53;1.60;;;;;;;3.96;80.62;100061.19;4983828;28;20214;-70
2023/04/12 01:58:51;;;;;;;2.50;1.60;;;;;;;3.97;80.22;100055.00;4987557;28;20228;-70
2023/04/12 02:01:20;;;;;;;3.00;1.87;;;;;;;3.98;80.88;100056.72;4970783;28;20700;-72
2023/04/12 02:03:49;;;;;;;4.00;1.43;;;;;;;3.99;80.09;100052.31;4977417;28;20261;-71
2023/04/12 02:06:18;;;;;;;5.27;1.67;;;;;;;4.01;81.22;100043.41;4982786;28;20215;-72
2023/04/12 02:08:45;;;;;;;3.40;2.10;;;;;;;4.05;80.93;100041.50;4989242;28;20219;-71
2023/04/12 02:11:13;;;;;;;3.83;1.93;;;;;;;4.09;80.83;100033.38;4976085;28;20547;-71
2023/04/12 02:13:40;;;;;;;4.10;1.87;;;;;;;4.14;80.67;100027.88;4992281;28;20833;-72
2023/04/12 02:16:09;;;;;;;1.73;1.33;;;;;;;4.17;80.06;100018.03;4985980;28;20203;-72
2023/04/12 02:18:37;;;;;;;5.87;1.83;;;;;;;4.21;79.98;100026.66;4982752;28;20297;-72
2023/04/12 02:21:03;;;;;;;3.00;1.60;;;;;;;4.25;80.02;100017.69;4993935;28;20276;-71
2023/04/12 02:23:30;;;;;;;4.17;1.70;;;;;;;4.27;79.49;100012.34;4984538;28;20477;-72
2023/04/12 02:25:56;;;;;;;2.40;1.47;;;;;;;4.30;79.17;100009.59;4986998;28;20219;-72
2023/04/12 02:28:23;;;;;;;3.67;1.77;;;;;;;4.32;79.47;99991.88;4981280;28;20230;-71
2023/04/12 02:30:52;;;;;;;3.90;1.80;;;;;;;4.33;79.08;99990.94;4984980;28;20241;-70
2023/04/12 02:33:20;;;;;;;2.53;2.03;;;;;;;4.34;79.46;99985.59;4989731;28;20254;-72
2023/04/12 02:35:48;;;;;;;3.10;1.40;;;;;;;4.39;79.18;99977.50;4979085;28;20207;-71
2023/04/12 02:38:15;;;;;;;3.47;1.60;;;;;;;4.40;79.26;99969.50;4989403;28;20218;-72
2023/04/12 02:40:41;;;;;;;3.87;1.47;;;;;;;4.41;79.06;99970.34;4976960;28;20220;-72
2023/04/12 02:43:08;;;;;;;2.27;1.53;;;;;;;4.42;78.75;99961.53;4988603;28;20319;-72
2023/04/12 02:45:35;;;;;;;2.90;2.10;;;;;;;4.43;79.28;99969.38;4987038;28;20217;-73
2023/04/12 02:48:01;;;;;;;3.23;2.10;;;;;;;4.44;78.52;99962.31;4978767;28;20216;-70
2023/04/12 02:50:29;;;;;;;4.00;1.73;;;;;;;4.44;78.97;99964.94;4991057;28;20219;-69
2023/04/12 02:52:57;;;;;;;4.13;1.80;;;;;;;4.48;78.67;99961.19;4979007;28;20836;-71
2023/04/12 02:55:24;;;;;;;4.33;1.70;;;;;;;4.49;78.50;99958.50;4982501;28;20376;-71
2023/04/12 02:57:51;;;;;;;5.03;1.70;;;;;;;4.51;79.20;99953.16;4991727;28;20218;-71
2023/04/12 03:00:17;;;;;;;4.30;1.97;;;;;;;4.52;78.62;99945.16;4995237;28;20230;-73
2023/04/12 03:02:44;;;;;;;3.80;1.77;;;;;;;4.55;79.06;99936.25;4991605;28;20385;-71
2023/04/12 03:05:11;;;;;;;5.87;1.97;;;;;;;4.59;79.16;99931.69;4987159;28;20309;-71
2023/04/12 03:07:37;;;;;;;6.27;1.80;;;;;;;4.62;78.90;99924.47;4989483;28;20253;-71
2023/04/12 03:10:06;;;;;;;4.63;1.80;;;;;;;4.64;78.25;99922.63;4987122;28;20223;-69
2023/04/12 03:12:33;;;;;;;4.03;2.00;;;;;;;4.67;78.49;99917.16;4989437;28;20227;-72
2023/04/12 03:15:00;;;;;;;3.33;1.90;;;;;;;4.69;78.47;99904.75;4986533;28;20207;-72
2023/04/12 03:17:26;;;;;;;5.83;2.27;;;;;;;4.71;78.33;99905.53;4998424;28;20222;-71
2023/04/12 03:19:52;;;;;;;3.50;2.10;;;;;;;4.74;78.40;99897.47;4982590;28;20227;-71
2023/04/12 03:22:19;;;;;;;4.90;1.60;;;;;;;4.77;77.54;99893.81;4992636;28;20621;-71
2023/04/12 03:24:45;;;;;;;4.53;2.00;;;;;;;4.80;77.82;99883.97;4984520;28;20239;-71
2023/04/12 03:27:13;;;;;;;4.07;1.87;;;;;;;4.83;77.98;99886.44;4977111;28;20736;-71
2023/04/12 03:29:40;;;;;;;3.37;1.70;;;;;;;4.85;77.23;99879.28;4989627;28;20599;-71
2023/04/12 03:32:07;;;;;;;5.83;1.57;;;;;;;4.89;77.39;99872.06;4980794;28;20689;-71
2023/04/12 03:34:33;;;;;;;4.47;1.23;;;;;;;4.93;77.51;99870.97;4983925;28;20227;-71
2023/04/12 03:37:01;;;;;;;3.63;1.57;;;;;;;4.97;77.11;99876.97;4988960;28;20299;-71
2023/04/12 03:39:27;;;;;;;5.67;1.80;;;;;;;5.00;76.76;99860.97;4987523;28;20239;-71
2023/04/12 03:41:54;;;;;;;3.97;1.70;;;;;;;5.01;76.75;99858.25;4991187;28;20630;-71
2023/04/12 03:44:24;;;;;;;2.77;1.20;;;;;;;5.03;76.51;99853.72;4981509;28;20227;-70
2023/04/12 03:46:51;;;;;;;4.27;1.90;;;;;;;5.06;76.42;99844.78;4992275;28;20398;-71
2023/04/12 03:49:18;;;;;;;4.93;1.53;;;;;;;5.08;76.01;99841.13;4981169;28;20682;-71
2023/04/12 03:51:44;;;;;;;2.87;1.40;;;;;;;5.11;75.92;99834.84;4990378;28;20605;-72
2023/04/12 03:54:11;;;;;;;4.57;1.33;;;;;;;5.12;75.68;99834.75;4985388;28;20208;-72
2023/04/12 03:56:38;;;;;;;3.30;1.67;;;;;;;5.15;76.02;99836.38;4991467;28;20202;-71
2023/04/12 03:59:06;;;;;;;4.17;1.80;;;;;;;5.15;76.08;99831.13;4985403;28;20239;-72
2023/04/12 04:01:34;;;;;;;4.33;1.83;;;;;;;5.16;75.88;99831.03;4989458;28;20226;-73
2023/04/12 04:04:01;;;;;;;4.40;1.53;;;;;;;5.15;76.02;99826.69;4992412;28;20763;-71
2023/04/12 04:06:28;;;;;;;4.47;1.83;;;;;;;5.16;75.61;99824.91;4987690;28;20223;-71
2023/04/12 04:08:55;;;;;;;2.77;1.60;;;;;;;5.17;76.14;99818.69;4987646;28;20231;-73
2023/04/12 04:11:22;;;;;;;4.87;2.07;;;;;;;5.17;76.08;99822.19;4988678;28;20216;-73
2023/04/12 04:13:48;;;;;;;4.27;1.63;;;;;;;5.18;75.84;99812.47;4983991;28;20223;-71
2023/04/12 04:16:15;;;;;;;3.27;1.57;;;;;;;5.17;76.00;99805.50;4991730;28;20216;-71
2023/04/12 04:18:42;;;;;;;2.07;1.50;;;;;;;5.16;76.17;99801.16;4988155;28;20370;-70
2023/04/12 04:21:09;;;;;;;4.27;3.07;;;;;;;5.15;75.75;99792.38;4985365;28;20204;-71
2023/04/12 04:23:37;;;;;;;4.17;1.50;;;;;;;5.15;75.74;99788.88;4986392;28;20227;-72
2023/04/12 04:26:08;;;;;;;6.03;2.07;;;;;;;5.15;76.07;99784.44;4986953;28;20351;-71
2023/04/12 04:28:36;;;;;;;6.07;1.87;;;;;;;5.15;75.61;99778.31;4984893;28;20227;-71
2023/04/12 04:31:04;;;;;;;5.80;1.80;;;;;;;5.16;75.58;99762.41;4980598;28;20709;-70
2023/04/12 04:33:31;;;;;;;3.00;1.60;;;;;;;5.19;75.72;99767.53;4986831;28;20372;-71
2023/04/12 04:35:59;;;;;;;10.53;2.47;;;;;;;5.23;75.46;99760.25;4982923;28;20676;-71
2023/04/12 04:38:26;;;;;;;2.70;1.30;;;;;;;5.28;75.41;99758.22;4984176;28;20227;-68
2023/04/12 04:40:53;;;;;;;4.10;1.83;;;;;;;5.34;75.21;99762.31;4986541;28;20207;-71
2023/04/12 04:43:19;;;;;;;5.70;1.40;;;;;;;5.40;74.65;99756.66;4987013;28;20326;-68
2023/04/12 04:45:48;;;;;;;4.10;1.50;;;;;;;5.47;74.20;99763.31;4981523;28;20235;-71
2023/04/12 04:48:15;;;;;;;5.90;1.70;;;;;;;5.54;73.48;99765.53;4986470;28;20281;-71
2023/04/12 04:50:42;;;;;;;3.53;1.40;;;;;;;5.62;73.06;99762.44;4987694;28;20207;-71
2023/04/12 04:53:10;;;;;;;3.33;1.40;;;;;;;5.68;72.45;99750.69;4979988;28;20396;-70
2023/04/12 04:55:36;;;;;;;5.03;1.80;;;;;;;5.75;72.23;99746.72;4982212;28;20219;-70
2023/04/12 04:58:03;;;;;;;6.13;1.77;;;;;;;5.81;71.50;99756.97;4985879;28;20215;-71
2023/04/12 05:00:29;;;;;;;4.57;1.70;;;;;;;5.85;71.03;99745.28;4986779;28;20203;-70
2023/04/12 05:02:56;;;;;;;3.37;1.40;;;;;;;5.88;70.81;99746.00;4991272;28;20647;-72
2023/04/12 05:05:22;;;;;;;2.87;1.10;;;;;;;5.92;70.96;99733.41;4985304;28;20716;-68
2023/04/12 05:07:49;;;;;;;4.60;1.43;;;;;;;5.96;70.70;99732.31;4991642;28;20442;-69
2023/04/12 05:10:17;;;;;;;3.70;1.47;;;;;;;5.98;70.36;99727.78;4988202;28;20232;-70
2023/04/12 05:12:43;;;;;;;2.70;1.53;;;;;;;6.00;70.66;99732.97;4983884;28;20220;-71
2023/04/12 05:15:10;;;;;;;2.83;1.33;;;;;;;6.03;70.66;99735.44;4991341;28;20865;-69
2023/04/12 05:17:37;;;;;;;2.87;1.30;;;;;;;6.05;70.58;99729.13;4990477;28;20215;-72
2023/04/12 05:20:06;;;;;;;5.57;1.53;;;;;;;6.08;70.73;99734.25;4992385;28;20227;-71
2023/04/12 05:22:33;;;;;;;3.80;1.50;;;;;;;6.11;70.94;99728.75;4986808;28;20203;-71
2023/04/12 05:24:59;;;;;;;4.97;1.60;;;;;;;6.15;70.77;99729.44;4986693;28;20250;-71
2023/04/12 05:27:28;;;;;;;4.00;1.10;;;;;;;6.19;70.95;99717.72;4991728;28;20703;-73
2023/04/12 05:29:56;;;;;;;7.07;1.43;;;;;;;6.25;71.01;99714.72;4985372;28;20518;-72
2023/04/12 05:32:23;;;;;;;6.67;1.30;;;;;;;6.30;71.46;99712.63;4988954;28;20207;-72
2023/04/12 05:34:49;;;;;;;4.80;1.20;;;;;;;6.36;71.32;99716.72;4985643;28;20523;-71
2023/04/12 05:37:16;;;;;;;2.00;1.23;;;;;;;6.43;70.55;99707.47;4986765;28;21959;-73
2023/04/12 05:39:42;;;;;;;4.97;1.40;;;;;;;6.47;70.28;99693.09;4983791;28;20747;-72
2023/04/12 05:42:08;;;;;;;2.23;1.37;;;;;;;6.51;70.27;99697.25;4986413;28;20470;-71
2023/04/12 05:44:39;;;;;;;9.27;1.40;;;;;;;6.54;69.51;99683.84;4984490;28;20585;-72
2023/04/12 05:47:05;;;;;;;3.10;1.20;;;;;;;6.59;68.87;99689.72;4981252;28;20211;-70
2023/04/12 05:49:32;;;;;;;3.53;1.40;;;;;;;6.61;68.34;99679.88;4984871;28;20231;-71
2023/04/12 05:51:58;;;;;;;2.43;1.20;;;;;;;6.60;68.66;99679.03;4986084;28;20696;-71
2023/04/12 05:54:25;;;;;;;4.30;1.37;;;;;;;6.58;68.45;99683.56;4986010;28;20206;-71
2023/04/12 05:56:53;;;;;;;3.37;1.47;;;;;;;6.58;68.09;99674.78;4989387;28;20211;-71
2023/04/12 05:59:19;;;;;;;3.33;1.73;;;;;;;6.58;68.03;99672.13;4983930;28;20338;-71
2023/04/12 06:01:47;;;;;;;6.70;2.13;;;;;;;6.56;68.00;99682.81;4982231;28;20206;-72
2023/04/12 06:04:14;;;;;;;3.60;1.60;;;;;;;6.58;67.95;99670.34;4982583;28;20228;-71
2023/04/12 06:06:42;;;;;;;3.60;1.67;;;;;;;6.58;67.44;99664.19;4984057;28;20204;-72
2023/04/12 06:09:09;;;;;;;2.97;1.70;;;;;;;6.60;67.83;99664.94;4982470;28;20247;-70
2023/04/12 06:11:37;;;;;;;5.03;1.57;;;;;;;6.63;67.85;99651.50;4985835;28;20200;-70
2023/04/12 06:14:04;;;;;;;3.47;1.50;;;;;;;6.72;68.12;99650.94;4981916;28;20200;-73
2023/04/12 06:16:31;;;;;;;3.87;1.37;;;;;;;6.85;67.97;99653.66;4987378;28;20200;-71
2023/04/12 06:18:58;;;;;;;2.93;1.53;;;;;;;6.98;68.62;99651.94;4984940;28;20234;-72
2023/04/12 06:21:25;;;;;;;4.40;1.47;;;;;;;7.12;68.44;99638.66;4982690;28;20204;-71
2023/04/12 06:23:51;;;;;;;6.90;1.80;;;;;;;7.28;68.26;99643.78;4975178;28;20232;-71
2023/04/12 06:26:18;;;;;;;2.33;1.47;;;;;;;7.42;68.17;99649.00;4977890;28;20211;-72
2023/04/12 06:28:44;;;;;;;6.70;1.60;;;;;;;7.54;67.18;99640.25;4979724;28;20219;-73
2023/04/12 06:31:11;;;;;;;2.47;1.57;;;;;;;7.66;67.07;99635.94;4984551;28;20215;-72
2023/04/12 06:33:37;;;;;;;3.93;1.57;;;;;;;7.80;66.19;99625.25;4984708;28;20739;-71
2023/04/12 06:36:06;;;;;;;5.57;1.63;;;;;;;7.95;66.73;99628.66;4983617;28;20217;-71
2023/04/12 06:38:33;;;;;;;5.10;1.93;;;;;;;8.13;66.14;99615.91;4978373;28;20234;-73
2023/04/12 06:40:59;;;;;;;4.27;1.70;;;;;;;8.28;66.02;99613.03;4981525;28;20212;-71
2023/04/12 06:43:26;;;;;;;3.67;1.30;;;;;;;8.43;65.68;99604.97;4981943;28;20207;-72
2023/04/12 06:45:52;;;;;;;4.20;2.00;;;;;;;8.57;65.09;99591.59;4987415;28;20230;-72
2023/04/12 06:48:19;;;;;;;3.07;1.47;;;;;;;8.67;65.28;99588.16;4989081;28;20204;-74
2023/04/12 06:50:45;;;;;;;2.13;1.10;;;;;;;8.76;65.10;99576.03;4986439;28;20215;-72
2023/04/12 06:53:13;;;;;;;4.93;1.37;;;;;;;8.85;63.81;99570.03;4986452;28;20226;-72
2023/04/12 06:55:40;;;;;;;2.73;1.50;;;;;;;8.91;64.57;99574.91;4978594;28;20209;-73
2023/04/12 06:58:07;;;;;;;3.53;1.30;;;;;;;8.93;64.05;99564.19;4986620;28;20218;-72
2023/04/12 07:00:33;;;;;;;3.13;1.43;;;;;;;8.96;63.88;99575.41;4987595;28;20560;-72
2023/04/12 07:03:00;;;;;;;2.90;1.37;;;;;;;8.95;64.15;99573.72;4986001;28;20410;-72
2023/04/12 07:05:26;;;;;;;4.67;1.50;;;;;;;8.95;64.54;99572.88;4981181;28;20834;-72
2023/04/12 07:07:53;;;;;;;3.93;1.33;;;;;;;9.01;64.10;99567.09;4987529;28;20207;-72
2023/04/12 07:10:20;;;;;;;2.77;1.37;;;;;;;9.02;64.37;99558.16;4984096;28;20598;-72
2023/04/12 07:12:48;;;;;;;4.77;1.60;;;;;;;9.01;63.93;99557.31;4986231;28;20212;-72
2023/04/12 07:15:14;;;;;;;6.73;1.63;;;;;;;9.03;64.32;99550.09;4982061;28;21156;-72
2023/04/12 07:17:41;;;;;;;3.13;1.50;;;;;;;9.02;64.92;99542.25;4980646;28;20222;-73
2023/04/12 07:20:08;;;;;;;3.77;1.40;;;;;;;9.07;65.34;99536.59;4985089;28;20592;-72
2023/04/12 07:22:34;;;;;;;2.63;1.20;;;;;;;9.07;65.93;99540.09;4984017;28;20200;-72
2023/04/12 07:25:01;;;;;;;6.03;1.37;;;;;;;9.08;65.50;99530.31;4984870;28;20231;-72
2023/04/12 07:27:29;;;;;;;3.40;1.10;;;;;;;9.14;66.45;99522.72;4982002;28;20215;-73
2023/04/12 07:29:56;;;;;;;2.63;1.23;;;;;;;9.26;66.91;99520.97;4982394;28;20228;-73
2023/04/12 07:32:23;;;;;;;2.60;1.23;;;;;;;9.41;66.43;99517.13;4987138;28;20274;-71
2023/04/12 07:34:49;;;;;;;3.27;1.27;;;;;;;9.58;66.53;99514.03;4987326;28;20215;-72
2023/04/12 07:37:16;;;;;;;5.07;1.50;;;;;;;9.71;65.57;99506.78;4990795;28;20207;-74
2023/04/12 07:39:43;;;;;;;3.90;1.10;;;;;;;9.83;64.94;99504.16;4989115;28;20595;-72
2023/04/12 07:42:09;;;;;;;2.70;0.93;;;;;;;9.96;64.61;99497.75;4987991;28;20230;-73
2023/04/12 07:44:37;;;;;;;3.43;1.30;;;;;;;10.05;64.15;99491.69;4986938;28;20234;-72
2023/04/12 07:47:03;;;;;;;2.53;1.40;;;;;;;10.13;64.12;99488.41;4986052;28;20206;-72
2023/04/12 07:49:30;;;;;;;9.47;1.80;;;;;;;10.16;63.39;99474.88;4989603;28;20233;-74
2023/04/12 07:51:56;;;;;;;6.43;1.70;;;;;;;10.20;63.46;99473.69;4994804;28;20200;-73
2023/04/12 07:54:24;;;;;;;4.87;1.77;;;;;;;10.31;63.63;99467.50;4984384;28;20204;-73
2023/04/12 07:57:02;;;;;;;3.73;1.13;;;;;;;10.38;63.21;99461.56;4996141;28;20244;-73
2023/04/12 07:59:29;;;;;;;4.30;1.30;;;;;;;10.47;62.51;99459.97;4987199;28;20232;-73
2023/04/12 08:01:57;;;;;;;3.37;1.40;;;;;;;10.54;62.45;99455.00;4983957;28;20235;-74
2023/04/12 08:04:23;;;;;;;2.40;1.00;;;;;;;10.58;61.72;99446.59;4988936;28;20713;-72
2023/04/12 08:06:49;;;;;;;2.23;1.23;;;;;;;10.60;61.50;99444.66;4995521;28;20231;-75
2023/04/12 08:09:16;;;;;;;3.60;1.40;;;;;;;10.57;61.08;99447.56;4986104;28;20228;-72
2023/04/12 08:11:42;;;;;;;4.23;1.40;;;;;;;10.58;60.91;99429.78;4990927;28;20213;-73
2023/04/12 08:14:09;;;;;;;4.20;1.23;;;;;;;10.56;61.10;99423.75;4983095;28;20222;-72
2023/04/12 08:16:35;;;;;;;2.30;1.53;;;;;;;10.54;60.33;99417.72;4986755;28;20213;-72
2023/04/12 08:19:03;;;;;;;2.60;1.37;;;;;;;10.51;60.04;99410.81;4985931;28;20231;-72
2023/04/12 08:21:30;;;;;;;4.53;1.63;;;;;;;10.45;60.51;99403.34;4986873;28;20215;-72
2023/04/12 08:23:56;;;;;;;3.33;1.33;;;;;;;10.38;60.40;99403.03;4986353;28;20226;-72
2023/04/12 08:26:22;;;;;;;2.47;1.10;;;;;;;10.36;60.13;99410.28;4990519;28;20261;-74
2023/04/12 08:28:49;;;;;;;3.43;1.10;;;;;;;10.34;60.63;99408.72;4991991;28;20234;-73
2023/04/12 08:31:16;;;;;;;3.27;1.43;;;;;;;10.34;60.79;99420.19;4992065;28;20215;-71
2023/04/12 08:33:43;;;;;;;3.13;1.67;;;;;;;10.33;61.01;99423.84;4985832;28;20209;-73
2023/04/12 08:36:11;;;;;;;3.03;1.30;;;;;;;10.36;61.17;99409.44;4991226;28;20208;-74
2023/04/12 08:38:37;;;;;;;3.37;1.50;;;;;;;10.35;60.84;99405.06;4986947;28;20345;-72
2023/04/12 08:41:04;;;;;;;4.03;1.43;;;;;;;10.35;61.46;99397.94;4986494;28;20215;-72
2023/04/12 08:43:32;;;;;;;3.30;1.30;;;;;;;10.35;61.20;99402.41;4984928;28;20211;-72
2023/04/12 08:46:00;;;;;;;3.27;1.80;;;;;;;10.33;60.87;99402.53;4994285;28;20258;-72
2023/04/12 08:48:27;;;;;;;3.90;1.57;;;;;;;10.34;60.67;99406.06;4991051;28;20490;-73
2023/04/12 08:50:55;;;;;;;2.97;1.40;;;;;;;10.31;61.07;99400.97;4988422;28;20291;-73
2023/04/12 08:53:23;;;;;;;4.10;1.47;;;;;;;10.29;61.69;99393.13;4989455;28;20266;-71
2023/04/12 08:55:50;;;;;;;5.37;1.80;;;;;;;10.26;62.52;99389.84;4984831;28;20205;-72
2023/04/12 08:58:17;;;;;;;4.70;1.70;;;;;;;10.27;64.20;99379.09;4986201;28;20669;-71
2023/04/12 09:00:44;;;;;;;3.00;1.60;;;;;;;10.23;64.55;99382.97;4991573;28;20448;-73
2023/04/12 09:03:11;;;;;;;3.53;1.30;;;;;;;10.24;64.88;99376.66;4983320;28;20223;-73
2023/04/12 09:05:37;;;;;;;3.40;1.43;;;;;;;10.20;65.49;99367.28;4991989;28;20275;-73
2023/04/12 09:08:04;;;;;;;3.97;2.20;;;;;;;10.18;65.91;99357.69;4989166;28;20216;-72
2023/04/12 09:10:33;;;;;;;2.77;1.33;;;;;;;10.12;66.30;99364.34;4985620;28;20207;-73
2023/04/12 09:13:00;;;;;;;3.40;1.40;;;;;;;10.07;66.70;99355.88;4987124;28;20767;-73
2023/04/12 09:15:27;;;;;;;4.53;1.60;;;;;;;10.01;67.03;99351.94;4985712;28;20206;-71
2023/04/12 09:18:05;;;;;;;2.80;1.40;;;;;;;9.96;67.31;99342.63;4985918;28;20708;-73
2023/04/12 09:20:31;;;;;;;2.57;1.30;;;;;;;9.91;67.96;99329.69;4984007;28;20231;-72
2023/04/12 09:22:59;;;;;;;2.20;1.30;;;;;;;9.87;67.73;99330.06;4986862;28;20203;-73
2023/04/12 09:25:38;;;;;;;3.00;1.43;;;;;;;9.82;68.83;99321.66;4989296;28;20287;-73
2023/04/12 09:28:18;;;;;;;1.70;1.60;;;;;;;9.75;68.90;99324.78;4987999;28;20219;-72
2023/04/12 09:30:50;;;;;;;2.13;1.53;;;;;;;9.73;69.45;99316.09;4988539;28;20204;-72
2023/04/12 09:33:17;;;;;;;5.83;1.60;;;;;;;9.70;70.22;99305.69;4986261;28;20220;-73
2023/04/12 09:35:43;;;;;;;4.37;1.33;;;;;;;9.71;70.93;99315.38;4984905;28;20203;-72
2023/04/12 09:38:10;;;;;;;2.77;1.40;;;;;;;9.67;71.49;99310.44;4987076;28;20215;-72
2023/04/12 09:40:38;;;;;;;3.93;2.57;;;;;;;9.63;71.85;99319.63;4991693;28;20214;-71
2023/04/12 09:43:06;;;;;;;3.00;1.40;;;;;;;9.60;72.77;99298.59;4988569;28;20215;-72
2023/04/12 09:45:36;;;;;;;2.87;1.30;;;;;;;9.60;73.83;99304.75;4989991;28;20243;-73
2023/04/12 09:48:02;;;;;;;4.03;1.67;;;;;;;9.58;74.33;99308.50;4988764;28;20217;-71
2023/04/12 09:50:32;;;;;;;1.43;1.27;;;;;;;9.58;75.08;99289.91;4987753;28;20212;-71
2023/04/12 09:53:00;;;;;;;4.70;1.50;;;;;;;9.52;74.94;99293.88;4993710;28;20257;-72
2023/04/12 09:55:28;;;;;;;2.47;1.43;;;;;;;9.51;75.54;99284.22;4988487;28;20203;-72
2023/04/12 09:57:56;;;;;;;2.07;1.53;;;;;;;9.47;75.89;99276.66;4987951;28;20681;-72
2023/04/12 10:00:25;;;;;;;2.23;1.47;;;;;;;9.45;76.40;99279.44;4990047;28;20222;-72
2023/04/12 10:02:53;;;;;;;3.47;1.60;;;;;;;9.42;77.29;99279.66;4991162;28;20230;-72
2023/04/12 10:05:20;;;;;;;2.97;1.30;;;;;;;9.38;77.64;99262.28;4986201;28;20232;-72
2023/04/12 10:07:47;;;;;;;2.20;1.40;;;;;;;9.34;78.08;99248.38;4986734;28;20207;-70
2023/04/12 10:10:15;;;;;;;3.43;1.47;;;;;;;9.34;77.98;99252.84;4989617;28;20223;-72
2023/04/12 10:12:44;;;;;;;3.90;1.63;;;;;;;9.35;79.19;99246.56;4985123;28;20230;-72
2023/04/12 10:15:15;;;;;;;3.77;1.40;;;;;;;9.34;78.95;99243.06;4984621;28;20203;-74
2023/04/12 10:17:44;;;;;;;3.33;1.50;;;;;;;9.35;79.00;99247.41;4988298;28;20550;-71
2023/04/12 10:20:11;;;;;;;3.07;1.70;;;;;;;9.33;79.49;99244.03;4988854;28;20235;-72
2023/04/12 10:22:39;;;;;;;3.07;1.20;;;;;;;9.32;80.28;99241.50;4984963;28;20677;-71
2023/04/12 10:25:11;;;;;;;3.30;1.23;;;;;;;9.29;80.23;99244.44;4988910;28;20258;-72
2023/04/12 10:27:39;;;;;;;4.10;1.77;;;;;;;9.27;80.89;99246.38;4988726;28;20214;-69
2023/04/12 10:30:23;;;;;;;3.07;1.50;;;;;;;9.30;80.96;99259.41;4981284;28;20223;-69
2023/04/12 10:33:06;;;;;;;2.83;1.57;;;;;;;9.32;80.84;99241.50;4973258;28;20216;-69
2023/04/12 10:35:59;;;;;;;4.23;2.10;;;;;;;9.37;81.56;99236.66;4973758;28;20222;-72
2023/04/12 10:38:30;;;;;;;2.27;1.63;;;;;;;9.38;81.14;99230.38;4981398;28;20403;-70
2023/04/12 10:41:14;;;;;;;4.40;1.30;;;;;;;9.44;81.62;99223.75;4977058;28;20227;-71
2023/04/12 10:43:41;;;;;;;4.47;1.70;;;;;;;9.47;81.30;99224.34;4981073;28;20650;-70
2023/04/12 10:46:53;;;;;;;2.37;1.60;;;;;;;9.51;81.05;99212.47;4989011;28;20230;-70
2023/04/12 10:49:21;;;;;;;4.00;2.10;;;;;;;9.55;81.63;99211.25;4960637;28;20228;-70
2023/04/12 10:52:16;;;;;;;4.57;2.17;;;;;;;9.58;82.06;99213.66;4982318;28;20211;-69
2023/04/12 10:54:43;;;;;;;2.53;1.70;;;;;;;9.62;81.65;99204.47;4986767;28;20208;-71
2023/04/12 10:57:48;;;;;;;4.07;2.17;;;;;;;9.67;82.25;99196.13;4984288;28;20200;-71
2023/04/12 11:00:15;;;;;;;3.67;1.73;;;;;;;9.73;82.66;99199.09;4984088;28;20226;-70
2023/04/12 11:03:05;;;;;;;1.67;1.40;;;;;;;9.78;82.36;99198.75;4980820;28;20204;-70
2023/04/12 11:05:56;;;;;;;3.47;1.20;;;;;;;9.79;81.98;99191.59;4983854;28;20235;-70
2023/04/12 11:08:23;;;;;;;3.20;1.50;;;;;;;9.81;81.91;99187.00;4979897;28;20270;-70
2023/04/12 11:10:50;;;;;;;1.80;1.20;;;;;;;9.83;81.73;99191.22;4989566;28;20207;-69
2023/04/12 11:13:18;;;;;;;1.80;1.17;;;;;;;9.84;80.80;99194.72;4985498;28;20215;-71
2023/04/12 11:15:44;;;;;;;1.23;1.00;;;;;;;9.84;81.11;99206.22;4985627;28;20199;-70
2023/04/12 11:18:11;;;;;;;2.10;1.63;;;;;;;9.85;80.72;99210.56;4982972;28;20215;-68
2023/04/12 11:20:39;;;;;;;2.30;1.10;;;;;;;9.82;80.60;99202.84;4989281;28;20723;-70
2023/04/12 11:23:06;;;;;;;1.43;1.00;;;;;;;9.85;81.40;99202.59;4990542;28;20214;-70
2023/04/12 11:25:33;;;;;;;1.90;1.07;;;;;;;9.85;80.80;99191.94;4986459;28;20234;-72
2023/04/12 11:28:00;;;;;;;3.00;1.00;;;;;;;9.87;81.65;99194.44;4991361;28;20664;-70
2023/04/12 11:30:28;;;;;;;3.03;0.97;;;;;;;9.91;80.67;99187.91;4987275;28;20231;-74
2023/04/12 11:32:54;;;;;;;1.53;1.10;;;;;;;9.90;80.47;99194.19;4989771;28;20442;-69
2023/04/12 11:35:26;;;;;;;2.13;1.03;;;;;;;9.91;80.56;99175.47;4993755;28;20210;-72
2023/04/12 11:37:54;;;;;;;2.07;1.30;;;;;;;9.93;79.84;99178.84;4984691;28;20212;-71
2023/04/12 11:40:22;;;;;;;1.57;0.90;;;;;;;9.90;80.23;99189.72;4988396;28;20231;-71
2023/04/12 11:42:48;;;;;;;1.20;0.97;;;;;;;9.90;80.68;99180.91;4984551;28;20244;-70
2023/04/12 11:45:19;;;;;;;2.90;1.10;;;;;;;9.93;80.53;99162.88;4984027;28;20211;-70